CA-0509 weather

CLOSED Cruikshank Air Field
Ontario, Canada

Public forecast

Using degrees Celsius for public forecast. Weather courtesy of forecast.io.

Closest aviation weather report (METAR) to Cruikshank Air Field

Closest report is Wiarton Airport, 11.3 nm (20.9 km) NNW. Retrieved 2019/10/21 19:00 UTC (10 minutes ago):

CYVV 211900Z 12013G19KT 8SM BKN120 OVC250 17/08 A2990 RMK AC5CS3 SLP130 DENSITY ALT 1200FT

Closest aviation forecast (TAF) to Cruikshank Air Field

Closest forecast is Wiarton Airport, 11.3 nm (20.9 km) NNW. Retrieved 2019/10/21 20:00 UTC (0 seconds ago):

TAF CYVV 211949Z 2120/2123 06005KT P6SM BKN240 BECMG 2114/2116 11010G20KT FM212200 12015G25KT P6SM OVC040 TEMPO 2122/2123 P6SM -SHRA OVC020 RMK NXT FCST WILL BE ISSUED AT 221045Z